Time;durP1;ratioP1;P1;durP2;ratioP2;P2;SDS_P1;SDS_P2;PMS_P1;PMS_P2;Temp;Humidity;BMP_temperature;BMP_pressure;BME280_temperature;BME280_humidity;BME280_pressure;Samples;Min_cycle;Max_cycle;Signal;HPM_P1;HPM_P2
2024/03/11 00:01:06;;;;;;;;;;;;;;;;;;4944422;28;92816;-75
2024/03/11 00:03:31;;;;;;;;;;;;;;;;;;4945164;28;92765;-74
2024/03/11 00:05:56;;;;;;;;;;;;;;;;;;4944918;28;94829;-74
2024/03/11 00:08:22;;;;;;;;;;;;;;;;;;4945102;28;92882;-74
2024/03/11 00:10:55;;;;;;;;;;;;;;;;;;4943460;28;92631;-74
2024/03/11 00:13:22;;;;;;;;;;;;;;;;;;4951699;28;95169;-74
2024/03/11 00:15:50;;;;;;;;;;;;;;;;;;4951530;28;92953;-74
2024/03/11 00:18:16;;;;;;;;;;;;;;;;;;4953869;28;92872;-75
2024/03/11 00:20:41;;;;;;;;;;;;;;;;;;4953813;28;95277;-76
2024/03/11 00:23:07;;;;;;;;;;;;;;;;;;4954752;28;92368;-74
2024/03/11 00:25:33;;;;;;;;;;;;;;;;;;4953824;28;92158;-75
2024/03/11 00:27:59;;;;;;;;;;;;;;;;;;4950433;28;95208;-76
2024/03/11 00:30:24;;;;;;;;;;;;;;;;;;4946947;28;93524;-74
2024/03/11 00:32:52;;;;;;;;;;;;;;;;;;4948081;28;92396;-75
2024/03/11 00:35:18;;;;;;;;;;;;;;;;;;4950621;28;95748;-74
2024/03/11 00:37:45;;;;;;;;;;;;;;;;;;4950162;28;95190;-76
2024/03/11 00:40:10;;;;;;;;;;;;;;;;;;4950743;28;92848;-76
2024/03/11 00:42:38;;;;;;;;;;;;;;;;;;4951322;28;92623;-77
2024/03/11 00:45:04;;;;;;;;;;;;;;;;;;4950974;28;92891;-75
2024/03/11 00:47:30;;;;;;;;;;;;;;;;;;4951093;28;92452;-74
2024/03/11 00:49:56;;;;;;;;;;;;;;;;;;4950656;28;92609;-74
2024/03/11 00:52:22;;;;;;;;;;;;;;;;;;4950269;28;92599;-74
2024/03/11 00:54:47;;;;;;;;;;;;;;;;;;4948222;28;94192;-74
2024/03/11 00:57:12;;;;;;;;;;;;;;;;;;4951665;28;92254;-74
2024/03/11 00:59:37;;;;;;;;;;;;;;;;;;4947905;28;92869;-76
2024/03/11 01:02:02;;;;;;;;;;;;;;;;;;4946736;28;93488;-74
2024/03/11 01:04:28;;;;;;;;;;;;;;;;;;4954034;28;95361;-75
2024/03/11 01:06:53;;;;;;;;;;;;;;;;;;4951001;28;92896;-76
2024/03/11 01:09:20;;;;;;;;;;;;;;;;;;4949818;28;92368;-76
2024/03/11 01:11:46;;;;;;;;;;;;;;;;;;4951343;28;92719;-75
2024/03/11 01:14:12;;;;;;;;;;;;;;;;;;4948917;28;94885;-74
2024/03/11 01:16:38;;;;;;;;;;;;;;;;;;4950692;28;93160;-76
2024/03/11 01:19:07;;;;;;;;;;;;;;;;;;4952743;28;93617;-74
2024/03/11 01:21:35;;;;;;;;;;;;;;;;;;4948885;28;92768;-74
2024/03/11 01:24:00;;;;;;;;;;;;;;;;;;4950333;28;92445;-74
2024/03/11 01:26:26;;;;;;;;;;;;;;;;;;4949305;28;93777;-74
2024/03/11 01:28:51;;;;;;;;;;;;;;;;;;4946478;28;92735;-74
2024/03/11 01:31:17;;;;;;;;;;;;;;;;;;4947213;28;92931;-74
2024/03/11 01:33:43;;;;;;;;;;;;;;;;;;4947270;28;92816;-74
2024/03/11 01:36:08;;;;;;;;;;;;;;;;;;4947204;28;92123;-75
2024/03/11 01:38:34;;;;;;;;;;;;;;;;;;4945926;28;94726;-74
2024/03/11 01:40:59;;;;;;;;;;;;;;;;;;4950949;28;95776;-75
2024/03/11 01:43:24;;;;;;;;;;;;;;;;;;4949860;28;93660;-73
2024/03/11 01:45:50;;;;;;;;;;;;;;;;;;4950069;28;92603;-75
2024/03/11 01:48:15;;;;;;;;;;;;;;;;;;4949549;28;92214;-73
2024/03/11 01:50:40;;;;;;;;;;;;;;;;;;4947585;28;95623;-75
2024/03/11 01:53:06;;;;;;;;;;;;;;;;;;4943000;28;92814;-74
2024/03/11 01:55:32;;;;;;;;;;;;;;;;;;4943840;28;92363;-75
2024/03/11 01:57:59;;;;;;;;;;;;;;;;;;4949588;28;92564;-74
2024/03/11 02:00:25;;;;;;;;;;;;;;;;;;4952337;28;92233;-81
2024/03/11 02:02:53;;;;;;;;;;;;;;;;;;4955093;28;92743;-78
2024/03/11 02:05:19;;;;;;;;;;;;;;;;;;4950947;28;92869;-73
2024/03/11 02:07:45;;;;;;;;;;;;;;;;;;4946484;28;93603;-75
2024/03/11 02:10:13;;;;;;;;;;;;;;;;;;4946843;28;93454;-75
2024/03/11 02:12:40;;;;;;;;;;;;;;;;;;4947884;28;92965;-76
2024/03/11 02:15:06;;;;;;;;;;;;;;;;;;4947066;28;92639;-74
2024/03/11 02:17:31;;;;;;;;;;;;;;;;;;4947088;28;95058;-74
2024/03/11 02:19:56;;;;;;;;;;;;;;;;;;4948772;28;93010;-74
2024/03/11 02:22:21;;;;;;;;;;;;;;;;;;4951337;28;92261;-74
2024/03/11 02:24:46;;;;;;;;;;;;;;;;;;4949449;28;92095;-74
2024/03/11 02:27:12;;;;;;;;;;;;;;;;;;4947995;28;92775;-74
2024/03/11 02:29:38;;;;;;;;;;;;;;;;;;4946515;28;95355;-74
2024/03/11 02:32:03;;;;;;;;;;;;;;;;;;4946223;28;93796;-74
2024/03/11 02:34:29;;;;;;;;;;;;;;;;;;4946267;28;92855;-74
2024/03/11 02:36:55;;;;;;;;;;;;;;;;;;4946388;28;93069;-73
2024/03/11 02:39:21;;;;;;;;;;;;;;;;;;4945664;28;92799;-73
2024/03/11 02:41:47;;;;;;;;;;;;;;;;;;4945255;28;92240;-73
2024/03/11 02:44:13;;;;;;;;;;;;;;;;;;4949536;28;92769;-75
2024/03/11 02:46:38;;;;;;;;;;;;;;;;;;4947008;28;92209;-75
2024/03/11 02:49:04;;;;;;;;;;;;;;;;;;4948784;28;92613;-75
2024/03/11 02:51:30;;;;;;;;;;;;;;;;;;4947637;28;92376;-74
2024/03/11 02:53:56;;;;;;;;;;;;;;;;;;4946008;28;93432;-75
2024/03/11 02:56:22;;;;;;;;;;;;;;;;;;4946724;28;93675;-73
2024/03/11 02:58:47;;;;;;;;;;;;;;;;;;4947464;28;92711;-75
2024/03/11 03:01:13;;;;;;;;;;;;;;;;;;4947243;28;92444;-75
2024/03/11 03:03:38;;;;;;;;;;;;;;;;;;4945705;28;95209;-74
2024/03/11 03:06:03;;;;;;;;;;;;;;;;;;4949196;28;92984;-74
2024/03/11 03:08:28;;;;;;;;;;;;;;;;;;4946162;28;93855;-73
2024/03/11 03:10:54;;;;;;;;;;;;;;;;;;4945404;28;94911;-74
2024/03/11 03:13:20;;;;;;;;;;;;;;;;;;4945978;28;91940;-73
2024/03/11 03:15:46;;;;;;;;;;;;;;;;;;4949670;28;92647;-74
2024/03/11 03:18:11;;;;;;;;;;;;;;;;;;4951965;28;92216;-76
2024/03/11 03:20:38;;;;;;;;;;;;;;;;;;4952270;28;93168;-76
2024/03/11 03:23:03;;;;;;;;;;;;;;;;;;4955040;28;93329;-75
2024/03/11 03:25:33;;;;;;;;;;;;;;;;;;4955843;28;92844;-74
2024/03/11 03:28:02;;;;;;;;;;;;;;;;;;4955357;28;92448;-74
2024/03/11 03:30:27;;;;;;;;;;;;;;;;;;4948996;28;92865;-75
2024/03/11 03:32:52;;;;;;;;;;;;;;;;;;4948289;28;92254;-74
2024/03/11 03:35:17;;;;;;;;;;;;;;;;;;4946772;28;92849;-73
2024/03/11 03:37:43;;;;;;;;;;;;;;;;;;4946456;28;92251;-74
2024/03/11 03:40:15;;;;;;;;;;;;;;;;;;4944975;28;92728;-74
2024/03/11 03:42:41;;;;;;;;;;;;;;;;;;4943907;28;93681;-74
2024/03/11 03:45:09;;;;;;;;;;;;;;;;;;4944916;28;94250;-73
2024/03/11 03:47:35;;;;;;;;;;;;;;;;;;4945469;28;92499;-73
2024/03/11 03:50:00;;;;;;;;;;;;;;;;;;4960448;28;93711;-81
2024/03/11 03:52:25;;;;;;;;;;;;;;;;;;4957045;28;93007;-80
2024/03/11 03:54:51;;;;;;;;;;;;;;;;;;4938570;28;93207;-76
2024/03/11 03:57:17;;;;;;;;;;;;;;;;;;4931920;28;92861;-74
2024/03/11 03:59:42;;;;;;;;;;;;;;;;;;4928015;28;92605;-74
2024/03/11 04:02:08;;;;;;;;;;;;;;;;;;4926983;28;92550;-73
2024/03/11 04:04:37;;;;;;;;;;;;;;;;;;4925493;28;92880;-73
2024/03/11 04:07:03;;;;;;;;;;;;;;;;;;4925683;28;92627;-73
2024/03/11 04:09:28;;;;;;;;;;;;;;;;;;4925043;28;93681;-74
2024/03/11 04:11:54;;;;;;;;;;;;;;;;;;4928274;28;92749;-76
2024/03/11 04:14:19;;;;;;;;;;;;;;;;;;4925050;28;93019;-74
2024/03/11 04:16:44;;;;;;;;;;;;;;;;;;4923556;28;95528;-74
2024/03/11 04:19:10;;;;;;;;;;;;;;;;;;4923698;28;92983;-74
2024/03/11 04:21:37;;;;;;;;;;;;;;;;;;4928237;28;92779;-76
2024/03/11 04:24:02;;;;;;;;;;;;;;;;;;4928357;28;92921;-74
2024/03/11 04:26:29;;;;;;;;;;;;;;;;;;4928416;28;91905;-76
2024/03/11 04:28:54;;;;;;;;;;;;;;;;;;4928640;28;92642;-75
2024/03/11 04:31:19;;;;;;;;;;;;;;;;;;4930490;28;92591;-73
2024/03/11 04:33:45;;;;;;;;;;;;;;;;;;4934903;28;93519;-75
2024/03/11 04:36:10;;;;;;;;;;;;;;;;;;4962488;28;94187;-74
2024/03/11 04:38:36;;;;;;;;;;;;;;;;;;4946853;28;92383;-74
2024/03/11 04:41:02;;;;;;;;;;;;;;;;;;4960794;28;92479;-74
2024/03/11 04:43:27;;;;;;;;;;;;;;;;;;4943713;28;95832;-74
2024/03/11 04:45:53;;;;;;;;;;;;;;;;;;4945121;28;92192;-74
2024/03/11 04:48:19;;;;;;;;;;;;;;;;;;4944133;28;92734;-73
2024/03/11 04:50:44;;;;;;;;;;;;;;;;;;4944892;28;93908;-74
2024/03/11 04:53:10;;;;;;;;;;;;;;;;;;4950180;28;92452;-75
2024/03/11 04:55:38;;;;;;;;;;;;;;;;;;4952941;28;92699;-76
2024/03/11 04:58:03;;;;;;;;;;;;;;;;;;4948793;28;93646;-74
2024/03/11 05:00:30;;;;;;;;;;;;;;;;;;4946912;28;93580;-73
2024/03/11 05:02:58;;;;;;;;;;;;;;;;;;4946095;28;92822;-75
2024/03/11 05:05:27;;;;;;;;;;;;;;;;;;4944625;28;92810;-73
2024/03/11 05:07:53;;;;;;;;;;;;;;;;;;4940867;28;92879;-74
2024/03/11 05:10:18;;;;;;;;;;;;;;;;;;4937872;28;92691;-74
2024/03/11 05:12:43;;;;;;;;;;;;;;;;;;4937715;28;92898;-74
2024/03/11 05:15:13;;;;;;;;;;;;;;;;;;4939599;28;95207;-74
2024/03/11 05:17:39;;;;;;;;;;;;;;;;;;4934378;28;92771;-73
2024/03/11 05:20:14;;;;;;;;;;;;;;;;;;4943071;28;92750;-74
2024/03/11 05:22:42;;;;;;;;;;;;;;;;;;4934764;28;94097;-81
2024/03/11 05:25:08;;;;;;;;;;;;;;;;;;4955315;28;92312;-83
2024/03/11 05:27:34;;;;;;;;;;;;;;;;;;4953656;28;92446;-77
2024/03/11 05:29:59;;;;;;;;;;;;;;;;;;4945310;28;93097;-76
2024/03/11 05:32:25;;;;;;;;;;;;;;;;;;4939897;28;92684;-77
2024/03/11 05:34:52;;;;;;;;;;;;;;;;;;4958077;28;92166;-81
2024/03/11 05:37:22;;;;;;;;;;;;;;;;;;4950553;28;92807;-80
2024/03/11 05:39:47;;;;;;;;;;;;;;;;;;4960546;28;94369;-75
2024/03/11 05:42:14;;;;;;;;;;;;;;;;;;4932779;28;92899;-74
2024/03/11 05:44:39;;;;;;;;;;;;;;;;;;4943290;28;92723;-74
2024/03/11 05:47:06;;;;;;;;;;;;;;;;;;4934475;28;95591;-73
2024/03/11 05:49:32;;;;;;;;;;;;;;;;;;4937924;28;92904;-73
2024/03/11 05:51:57;;;;;;;;;;;;;;;;;;4937256;28;93409;-74
2024/03/11 05:54:24;;;;;;;;;;;;;;;;;;4930456;28;94173;-73
2024/03/11 05:56:58;;;;;;;;;;;;;;;;;;4936461;28;93135;-73
2024/03/11 05:59:24;;;;;;;;;;;;;;;;;;4936581;28;92817;-74
2024/03/11 06:01:49;;;;;;;;;;;;;;;;;;4939578;28;93474;-74
2024/03/11 06:04:15;;;;;;;;;;;;;;;;;;4933330;28;91817;-73
2024/03/11 06:06:43;;;;;;;;;;;;;;;;;;4933221;28;92849;-74
2024/03/11 06:09:10;;;;;;;;;;;;;;;;;;4935486;28;92942;-73
2024/03/11 06:11:40;;;;;;;;;;;;;;;;;;4939673;28;93655;-74
2024/03/11 06:14:05;;;;;;;;;;;;;;;;;;4934413;28;93353;-73
2024/03/11 06:16:31;;;;;;;;;;;;;;;;;;4937971;28;93359;-74
2024/03/11 06:18:58;;;;;;;;;;;;;;;;;;4932635;28;93135;-73
2024/03/11 06:21:23;;;;;;;;;;;;;;;;;;4938011;28;93144;-75
2024/03/11 06:23:49;;;;;;;;;;;;;;;;;;4935942;28;92727;-74
2024/03/11 06:26:15;;;;;;;;;;;;;;;;;;4933935;28;95925;-73
2024/03/11 06:28:40;;;;;;;;;;;;;;;;;;4942929;28;95181;-75
2024/03/11 06:31:05;;;;;;;;;;;;;;;;;;4940863;28;92858;-75
2024/03/11 06:33:30;;;;;;;;;;;;;;;;;;4942955;28;92775;-73
2024/03/11 06:35:56;;;;;;;;;;;;;;;;;;4931250;28;93749;-73
2024/03/11 06:38:21;;;;;;;;;;;;;;;;;;4939767;28;92891;-74
2024/03/11 06:40:46;;;;;;;;;;;;;;;;;;4940831;28;93377;-74
2024/03/11 06:43:12;;;;;;;;;;;;;;;;;;4946067;28;92563;-74
2024/03/11 06:45:37;;;;;;;;;;;;;;;;;;4941988;28;92775;-73
2024/03/11 06:48:03;;;;;;;;;;;;;;;;;;4942692;28;95486;-76
2024/03/11 06:50:28;;;;;;;;;;;;;;;;;;4940441;28;92311;-73
2024/03/11 06:52:54;;;;;;;;;;;;;;;;;;4934622;28;92783;-74
2024/03/11 06:55:20;;;;;;;;;;;;;;;;;;4935214;28;92625;-75
2024/03/11 06:57:46;;;;;;;;;;;;;;;;;;4934538;28;92612;-74
2024/03/11 07:00:17;;;;;;;;;;;;;;;;;;4930524;28;93679;-74
2024/03/11 07:02:43;;;;;;;;;;;;;;;;;;4937886;28;92845;-74
2024/03/11 07:05:09;;;;;;;;;;;;;;;;;;4948724;28;93686;-78
2024/03/11 07:07:35;;;;;;;;;;;;;;;;;;4941360;28;92807;-75
2024/03/11 07:10:01;;;;;;;;;;;;;;;;;;4934699;28;92284;-76
2024/03/11 07:12:26;;;;;;;;;;;;;;;;;;4951557;28;94832;-77
2024/03/11 07:14:51;;;;;;;;;;;;;;;;;;4949462;28;94371;-75
2024/03/11 07:17:19;;;;;;;;;;;;;;;;;;4937862;28;92699;-79
2024/03/11 07:19:45;;;;;;;;;;;;;;;;;;4938784;28;92560;-80
2024/03/11 07:22:11;;;;;;;;;;;;;;;;;;4942804;28;95454;-72
2024/03/11 07:24:37;;;;;;;;;;;;;;;;;;4944434;28;94493;-72
2024/03/11 07:27:02;;;;;;;;;;;;;;;;;;4942153;28;93291;-72
2024/03/11 07:29:28;;;;;;;;;;;;;;;;;;4936887;28;92633;-71
2024/03/11 07:31:53;;;;;;;;;;;;;;;;;;4938428;28;93478;-71
2024/03/11 07:34:19;;;;;;;;;;;;;;;;;;4946973;28;93016;-71
2024/03/11 07:36:44;;;;;;;;;;;;;;;;;;4933223;28;92560;-71
2024/03/11 07:39:10;;;;;;;;;;;;;;;;;;4944091;28;92561;-71
2024/03/11 07:41:36;;;;;;;;;;;;;;;;;;4939143;28;92106;-70
2024/03/11 07:44:01;;;;;;;;;;;;;;;;;;4940845;28;93083;-75
2024/03/11 07:46:28;;;;;;;;;;;;;;;;;;4943716;28;93427;-72
2024/03/11 07:48:54;;;;;;;;;;;;;;;;;;4931468;28;94270;-72
2024/03/11 07:51:19;;;;;;;;;;;;;;;;;;4935596;28;93562;-73
2024/03/11 07:53:45;;;;;;;;;;;;;;;;;;4936413;28;92822;-72
2024/03/11 07:56:11;;;;;;;;;;;;;;;;;;4939061;28;92517;-72
2024/03/11 07:58:37;;;;;;;;;;;;;;;;;;4932282;28;93913;-72
2024/03/11 08:01:02;;;;;;;;;;;;;;;;;;4933857;28;96047;-72
2024/03/11 08:03:27;;;;;;;;;;;;;;;;;;4932810;28;92362;-70
2024/03/11 08:05:52;;;;;;;;;;;;;;;;;;4929913;28;91508;-73
2024/03/11 08:08:18;;;;;;;;;;;;;;;;;;4935974;28;92296;-71
2024/03/11 08:10:43;;;;;;;;;;;;;;;;;;4935166;28;94430;-70
2024/03/11 08:13:08;;;;;;;;;;;;;;;;;;4935749;28;94195;-71
2024/03/11 08:15:33;;;;;;;;;;;;;;;;;;4938050;28;92828;-72
2024/03/11 08:17:59;;;;;;;;;;;;;;;;;;4934794;28;92771;-73
2024/03/11 08:20:26;;;;;;;;;;;;;;;;;;4934683;28;96703;-73
2024/03/11 08:22:52;;;;;;;;;;;;;;;;;;4935825;28;92366;-72
2024/03/11 08:25:27;;;;;;;;;;;;;;;;;;4935078;28;95137;-76
2024/03/11 08:27:53;;;;;;;;;;;;;;;;;;4935309;28;92775;-72
2024/03/11 08:30:19;;;;;;;;;;;;;;;;;;4940665;28;91799;-72
2024/03/11 08:32:46;;;;;;;;;;;;;;;;;;4931672;28;92844;-73
2024/03/11 08:35:14;;;;;;;;;;;;;;;;;;4935908;28;92258;-78
2024/03/11 08:37:41;;;;;;;;;;;;;;;;;;4933271;28;95786;-75
2024/03/11 08:40:08;;;;;;;;;;;;;;;;;;4939974;28;92636;-78
2024/03/11 08:42:33;;;;;;;;;;;;;;;;;;4937467;28;93942;-76
2024/03/11 08:44:58;;;;;;;;;;;;;;;;;;4934554;28;93197;-78
2024/03/11 08:47:24;;;;;;;;;;;;;;;;;;4939291;28;92256;-77
2024/03/11 08:49:49;;;;;;;;;;;;;;;;;;4940771;28;92638;-76
2024/03/11 08:52:15;;;;;;;;;;;;;;;;;;4941958;28;92899;-78
2024/03/11 08:54:43;;;;;;;;;;;;;;;;;;4941146;28;91912;-78
2024/03/11 08:57:09;;;;;;;;;;;;;;;;;;4945432;28;94315;-76
2024/03/11 08:59:35;;;;;;;;;;;;;;;;;;4936236;28;92974;-78
2024/03/11 09:02:01;;;;;;;;;;;;;;;;;;4933780;28;93737;-79
2024/03/11 09:04:26;;;;;;;;;;;;;;;;;;4941336;28;93463;-72
2024/03/11 09:06:54;;;;;;;;;;;;;;;;;;4935622;28;93821;-72
2024/03/11 09:09:24;;;;;;;;;;;;;;;;;;4941602;28;94055;-73
2024/03/11 09:11:51;;;;;;;;;;;;;;;;;;4941209;28;93979;-73
2024/03/11 09:14:16;;;;;;;;;;;;;;;;;;4930134;28;93986;-74
2024/03/11 09:16:41;;;;;;;;;;;;;;;;;;4937262;28;93668;-73
2024/03/11 09:19:08;;;;;;;;;;;;;;;;;;4937270;28;92481;-72
2024/03/11 09:21:34;;;;;;;;;;;;;;;;;;4936171;28;92726;-70
2024/03/11 09:24:00;;;;;;;;;;;;;;;;;;4941295;28;92644;-74
2024/03/11 09:26:25;;;;;;;;;;;;;;;;;;4943051;28;93736;-74
2024/03/11 09:28:53;;;;;;;;;;;;;;;;;;4940085;28;92807;-73
2024/03/11 09:31:18;;;;;;;;;;;;;;;;;;4940494;28;93298;-72
2024/03/11 09:33:44;;;;;;;;;;;;;;;;;;4948397;28;92865;-72
2024/03/11 09:36:09;;;;;;;;;;;;;;;;;;4938283;28;92703;-73
2024/03/11 09:38:35;;;;;;;;;;;;;;;;;;4937343;28;92776;-72
2024/03/11 09:41:05;;;;;;;;;;;;;;;;;;4942525;28;92586;-73
2024/03/11 09:43:32;;;;;;;;;;;;;;;;;;4936323;28;92559;-73
2024/03/11 09:45:58;;;;;;;;;;;;;;;;;;4938600;28;92731;-74
2024/03/11 09:48:25;;;;;;;;;;;;;;;;;;4937060;28;92715;-73
2024/03/11 09:50:53;;;;;;;;;;;;;;;;;;4935939;28;94048;-74
2024/03/11 09:53:18;;;;;;;;;;;;;;;;;;4936826;28;92882;-73
2024/03/11 09:55:44;;;;;;;;;;;;;;;;;;4937361;28;93015;-74
2024/03/11 09:58:10;;;;;;;;;;;;;;;;;;4939410;28;92918;-74
2024/03/11 10:00:48;;;;;;;;;;;;;;;;;;4934884;28;92750;-74
2024/03/11 10:03:13;;;;;;;;;;;;;;;;;;4936291;28;92596;-76
2024/03/11 10:05:39;;;;;;;;;;;;;;;;;;4938517;28;93030;-75
2024/03/11 10:08:05;;;;;;;;;;;;;;;;;;4939647;28;91789;-73
2024/03/11 10:10:32;;;;;;;;;;;;;;;;;;4934187;28;92604;-74
2024/03/11 10:13:01;;;;;;;;;;;;;;;;;;4934372;28;92761;-74
2024/03/11 10:15:32;;;;;;;;;;;;;;;;;;4936660;28;95117;-73
2024/03/11 10:18:01;;;;;;;;;;;;;;;;;;4940167;28;92613;-74
2024/03/11 10:20:27;;;;;;;;;;;;;;;;;;4926056;28;92384;-75
2024/03/11 10:22:55;;;;;;;;;;;;;;;;;;4932608;28;93346;-74
2024/03/11 10:25:27;;;;;;;;;;;;;;;;;;4938220;28;92737;-77
2024/03/11 10:27:52;;;;;;;;;;;;;;;;;;4934025;28;92723;-75
2024/03/11 10:30:19;;;;;;;;;;;;;;;;;;4938812;28;92507;-78
2024/03/11 10:32:45;;;;;;;;;;;;;;;;;;4932646;28;92200;-75
2024/03/11 10:35:11;;;;;;;;;;;;;;;;;;4941317;28;92172;-74
2024/03/11 10:37:41;;;;;;;;;;;;;;;;;;4939441;28;93390;-76
2024/03/11 10:40:10;;;;;;;;;;;;;;;;;;4949281;28;93980;-76
2024/03/11 10:42:36;;;;;;;;;;;;;;;;;;4939281;28;93505;-74
2024/03/11 10:45:05;;;;;;;;;;;;;;;;;;4938950;28;92797;-74
2024/03/11 10:47:30;;;;;;;;;;;;;;;;;;4936190;28;92694;-73
2024/03/11 10:49:59;;;;;;;;;;;;;;;;;;4936075;28;92556;-74
2024/03/11 10:52:25;;;;;;;;;;;;;;;;;;4934530;28;92566;-75
2024/03/11 10:54:54;;;;;;;;;;;;;;;;;;4936798;28;92652;-75
2024/03/11 10:57:24;;;;;;;;;;;;;;;;;;4941789;28;92576;-75
2024/03/11 10:59:49;;;;;;;;;;;;;;;;;;4944069;28;92972;-74
2024/03/11 11:02:24;;;;;;;;;;;;;;;;;;4938932;28;93413;-75
2024/03/11 11:04:53;;;;;;;;;;;;;;;;;;4953138;28;94679;-74
2024/03/11 11:07:30;;;;;;;;;;;;;;;;;;4942564;28;92927;-75
2024/03/11 11:09:59;;;;;;;;;;;;;;;;;;4938929;28;93271;-73
2024/03/11 11:12:24;;;;;;;;;;;;;;;;;;4939836;28;92870;-74
2024/03/11 11:14:50;;;;;;;;;;;;;;;;;;4934643;28;92612;-74
2024/03/11 11:17:17;;;;;;;;;;;;;;;;;;4931780;28;92821;-73
2024/03/11 11:19:42;;;;;;;;;;;;;;;;;;4941091;28;94212;-73
2024/03/11 11:22:09;;;;;;;;;;;;;;;;;;4939773;28;91817;-74
2024/03/11 11:24:42;;;;;;;;;;;;;;;;;;4933822;28;95912;-74
2024/03/11 11:27:13;;;;;;;;;;;;;;;;;;4938354;28;92557;-73
2024/03/11 11:29:38;;;;;;;;;;;;;;;;;;4941888;28;93618;-74
2024/03/11 11:32:03;;;;;;;;;;;;;;;;;;4938828;28;93645;-74
2024/03/11 11:34:44;;;;;;;;;;;;;;;;;;4933679;28;93280;-74
2024/03/11 11:37:09;;;;;;;;;;;;;;;;;;4937978;28;92918;-74
2024/03/11 11:39:35;;;;;;;;;;;;;;;;;;4929923;28;93248;-75
2024/03/11 11:42:00;;;;;;;;;;;;;;;;;;4931373;28;92466;-74
2024/03/11 11:44:26;;;;;;;;;;;;;;;;;;4942031;28;95285;-74
2024/03/11 11:46:52;;;;;;;;;;;;;;;;;;4933976;28;92328;-74
2024/03/11 11:49:18;;;;;;;;;;;;;;;;;;4934159;28;94333;-73
2024/03/11 11:51:47;;;;;;;;;;;;;;;;;;4934195;28;92821;-74
2024/03/11 11:54:25;;;;;;;;;;;;;;;;;;4937431;28;93360;-74
2024/03/11 11:56:51;;;;;;;;;;;;;;;;;;4936035;28;93125;-76
2024/03/11 11:59:20;;;;;;;;;;;;;;;;;;4927984;28;93591;-75
2024/03/11 12:01:54;;;;;;;;;;;;;;;;;;4925415;28;92995;-75
2024/03/11 12:04:20;;;;;;;;;;;;;;;;;;4942647;28;92855;-75
2024/03/11 12:06:48;;;;;;;;;;;;;;;;;;4939992;28;93091;-75
2024/03/11 12:09:16;;;;;;;;;;;;;;;;;;4931782;28;92810;-76
2024/03/11 12:11:45;;;;;;;;;;;;;;;;;;4940260;28;91648;-75
2024/03/11 12:14:11;;;;;;;;;;;;;;;;;;4937131;28;93049;-74
2024/03/11 12:16:38;;;;;;;;;;;;;;;;;;4937766;28;95865;-74
2024/03/11 12:19:05;;;;;;;;;;;;;;;;;;4942845;28;93201;-74
2024/03/11 12:21:31;;;;;;;;;;;;;;;;;;4938971;28;93030;-73
2024/03/11 12:24:00;;;;;;;;;;;;;;;;;;4941415;28;93558;-73
2024/03/11 12:26:27;;;;;;;;;;;;;;;;;;4941591;28;93286;-73
2024/03/11 12:29:02;;;;;;;;;;;;;;;;;;4932720;28;92313;-77
2024/03/11 12:31:32;;;;;;;;;;;;;;;;;;4939265;28;94232;-75
2024/03/11 12:33:58;;;;;;;;;;;;;;;;;;4939626;28;92843;-73
2024/03/11 12:36:26;;;;;;;;;;;;;;;;;;4941067;28;92558;-74
2024/03/11 12:38:52;;;;;;;;;;;;;;;;;;4941769;28;92892;-73
2024/03/11 12:41:40;;;;;;;;;;;;;;;;;;4937121;28;92897;-73
2024/03/11 12:44:10;;;;;;;;;;;;;;;;;;4942835;28;93821;-73
2024/03/11 12:46:35;;;;;;;;;;;;;;;;;;4943664;28;92849;-73
2024/03/11 12:49:00;;;;;;;;;;;;;;;;;;4943220;28;93469;-73
2024/03/11 12:51:26;;;;;;;;;;;;;;;;;;4935912;28;92251;-73
2024/03/11 12:53:51;;;;;;;;;;;;;;;;;;4942417;28;92491;-74
2024/03/11 12:56:16;;;;;;;;;;;;;;;;;;4937113;28;92452;-74
2024/03/11 12:58:42;;;;;;;;;;;;;;;;;;4939203;28;92944;-73
2024/03/11 13:01:16;;;;;;;;;;;;;;;;;;4940695;28;92121;-74
2024/03/11 13:03:43;;;;;;;;;;;;;;;;;;4943807;28;92248;-76
2024/03/11 13:06:15;;;;;;;;;;;;;;;;;;4930525;28;95756;-74
2024/03/11 13:08:41;;;;;;;;;;;;;;;;;;4943322;28;93524;-74
2024/03/11 13:11:10;;;;;;;;;;;;;;;;;;4947076;28;93354;-74
2024/03/11 13:13:36;;;;;;;;;;;;;;;;;;4935057;28;93369;-73
2024/03/11 13:16:02;;;;;;;;;;;;;;;;;;4940839;28;92706;-74
2024/03/11 13:18:30;;;;;;;;;;;;;;;;;;4933939;28;92860;-74
2024/03/11 13:20:56;;;;;;;;;;;;;;;;;;4937728;28;92770;-74
2024/03/11 13:23:24;;;;;;;;;;;;;;;;;;4940300;28;92600;-75
2024/03/11 13:25:49;;;;;;;;;;;;;;;;;;4938124;28;92075;-72
2024/03/11 13:28:15;;;;;;;;;;;;;;;;;;4935620;28;92985;-73
2024/03/11 13:30:44;;;;;;;;;;;;;;;;;;4940458;28;93824;-73
2024/03/11 13:33:10;;;;;;;;;;;;;;;;;;4942603;28;94126;-74
2024/03/11 13:35:37;;;;;;;;;;;;;;;;;;4935676;28;93290;-76
2024/03/11 13:38:03;;;;;;;;;;;;;;;;;;4939457;28;92688;-74
2024/03/11 13:40:28;;;;;;;;;;;;;;;;;;4934037;28;92825;-77
2024/03/11 13:42:55;;;;;;;;;;;;;;;;;;4936706;28;93171;-75
2024/03/11 13:45:20;;;;;;;;;;;;;;;;;;4940022;28;93285;-78
2024/03/11 13:47:47;;;;;;;;;;;;;;;;;;4937106;28;92543;-76
2024/03/11 13:50:16;;;;;;;;;;;;;;;;;;4937620;28;92722;-76
2024/03/11 13:52:42;;;;;;;;;;;;;;;;;;4936090;28;93346;-74
2024/03/11 13:55:08;;;;;;;;;;;;;;;;;;4942729;28;92790;-75
2024/03/11 13:57:33;;;;;;;;;;;;;;;;;;4936245;28;93798;-74
2024/03/11 13:59:59;;;;;;;;;;;;;;;;;;4936939;28;92792;-74
2024/03/11 14:02:25;;;;;;;;;;;;;;;;;;4935154;28;92997;-74
2024/03/11 14:04:50;;;;;;;;;;;;;;;;;;4938894;28;93599;-74
2024/03/11 14:07:15;;;;;;;;;;;;;;;;;;4928691;28;93584;-75
2024/03/11 14:09:41;;;;;;;;;;;;;;;;;;4941491;28;93170;-75
2024/03/11 14:12:07;;;;;;;;;;;;;;;;;;4935092;28;95649;-75
2024/03/11 14:14:34;;;;;;;;;;;;;;;;;;4935492;28;91838;-75
2024/03/11 14:16:59;;;;;;;;;;;;;;;;;;4942940;28;92464;-74
2024/03/11 14:19:27;;;;;;;;;;;;;;;;;;4936731;28;92828;-75
2024/03/11 14:21:52;;;;;;;;;;;;;;;;;;4930743;28;93547;-75
2024/03/11 14:24:19;;;;;;;;;;;;;;;;;;4931912;28;93243;-74
2024/03/11 14:26:44;;;;;;;;;;;;;;;;;;4935576;28;92776;-74
2024/03/11 14:29:14;;;;;;;;;;;;;;;;;;4925553;28;95843;-72
2024/03/11 14:31:41;;;;;;;;;;;;;;;;;;4939147;28;94230;-74
2024/03/11 14:34:10;;;;;;;;;;;;;;;;;;4936178;28;93043;-74
2024/03/11 14:36:35;;;;;;;;;;;;;;;;;;4940751;28;93792;-74
2024/03/11 14:39:01;;;;;;;;;;;;;;;;;;4934365;28;93285;-75
2024/03/11 14:41:32;;;;;;;;;;;;;;;;;;4933721;28;92667;-75
2024/03/11 14:43:58;;;;;;;;;;;;;;;;;;4940711;28;95773;-74
2024/03/11 14:46:24;;;;;;;;;;;;;;;;;;4934256;28;93702;-75
2024/03/11 14:48:50;;;;;;;;;;;;;;;;;;4940166;28;93417;-74
2024/03/11 14:51:20;;;;;;;;;;;;;;;;;;4933760;28;92887;-74
2024/03/11 14:53:46;;;;;;;;;;;;;;;;;;4939054;28;93220;-75
2024/03/11 14:56:11;;;;;;;;;;;;;;;;;;4934318;28;92872;-74
2024/03/11 14:58:37;;;;;;;;;;;;;;;;;;4941537;28;92859;-74
2024/03/11 15:01:03;;;;;;;;;;;;;;;;;;4936316;28;92658;-75
2024/03/11 15:03:29;;;;;;;;;;;;;;;;;;4930306;28;94621;-74
2024/03/11 15:05:54;;;;;;;;;;;;;;;;;;4933306;28;92373;-74
2024/03/11 15:08:20;;;;;;;;;;;;;;;;;;4936478;28;94211;-76
2024/03/11 15:10:46;;;;;;;;;;;;;;;;;;4934764;28;95262;-76
2024/03/11 15:13:14;;;;;;;;;;;;;;;;;;4933838;28;92329;-76
2024/03/11 15:15:40;;;;;;;;;;;;;;;;;;4936658;28;92737;-76
2024/03/11 15:18:07;;;;;;;;;;;;;;;;;;4936314;28;93875;-76
2024/03/11 15:20:36;;;;;;;;;;;;;;;;;;4938596;28;92239;-77
2024/03/11 15:23:05;;;;;;;;;;;;;;;;;;4935705;28;93077;-76
2024/03/11 15:25:32;;;;;;;;;;;;;;;;;;4931092;28;92597;-78
2024/03/11 15:27:57;;;;;;;;;;;;;;;;;;4935920;28;93966;-77
2024/03/11 15:30:26;;;;;;;;;;;;;;;;;;4936280;28;93254;-76
2024/03/11 15:32:52;;;;;;;;;;;;;;;;;;4933768;28;92325;-75
2024/03/11 15:35:17;;;;;;;;;;;;;;;;;;4931663;28;93196;-75
2024/03/11 15:37:43;;;;;;;;;;;;;;;;;;4932308;28;93754;-75
2024/03/11 15:40:09;;;;;;;;;;;;;;;;;;4923235;28;92667;-75
2024/03/11 15:42:34;;;;;;;;;;;;;;;;;;4942497;28;93817;-74
2024/03/11 15:45:00;;;;;;;;;;;;;;;;;;4934754;28;92831;-75
2024/03/11 15:47:26;;;;;;;;;;;;;;;;;;4933467;28;93636;-75
2024/03/11 15:49:51;;;;;;;;;;;;;;;;;;4934113;28;92658;-75
2024/03/11 15:52:16;;;;;;;;;;;;;;;;;;4930581;28;92260;-75
2024/03/11 15:54:43;;;;;;;;;;;;;;;;;;4938677;28;92770;-74
2024/03/11 15:57:08;;;;;;;;;;;;;;;;;;4932559;28;92886;-75
2024/03/11 15:59:33;;;;;;;;;;;;;;;;;;4932813;28;93182;-75
2024/03/11 16:01:59;;;;;;;;;;;;;;;;;;4934532;28;93442;-75
2024/03/11 16:04:24;;;;;;;;;;;;;;;;;;4944842;28;93381;-75
2024/03/11 16:06:51;;;;;;;;;;;;;;;;;;4936152;28;93230;-76
2024/03/11 16:10:05;;;;;;;;;;;;;;;;;;4941085;28;92842;-74
2024/03/11 16:12:03;;;;;;;;;;;;;;;;;;4937497;28;92670;-72
2024/03/11 16:14:29;;;;;;;;;;;;;;;;;;4932746;28;92966;-75
2024/03/11 16:16:54;;;;;;;;;;;;;;;;;;4934699;28;92072;-75
2024/03/11 16:19:21;;;;;;;;;;;;;;;;;;4933635;28;92389;-75
2024/03/11 16:21:46;;;;;;;;;;;;;;;;;;4935849;28;93327;-73
2024/03/11 16:24:13;;;;;;;;;;;;;;;;;;4940458;28;94326;-75
2024/03/11 16:26:39;;;;;;;;;;;;;;;;;;4925748;28;92719;-75
2024/03/11 16:29:04;;;;;;;;;;;;;;;;;;4928825;28;93238;-75
2024/03/11 16:31:30;;;;;;;;;;;;;;;;;;4936791;28;93360;-75
2024/03/11 16:33:55;;;;;;;;;;;;;;;;;;4939799;28;94143;-75
2024/03/11 16:36:20;;;;;;;;;;;;;;;;;;4935965;28;93667;-75
2024/03/11 16:38:47;;;;;;;;;;;;;;;;;;4934197;28;93051;-74
2024/03/11 16:41:12;;;;;;;;;;;;;;;;;;4934115;28;92940;-74